createdAt,value
2022-11-01T10:51:16.107Z,52.57
2022-11-01T10:52:21.814Z,52.53
2022-11-01T10:53:23.899Z,52.88
2022-11-01T10:54:29.569Z,52.91
2022-11-01T10:55:47.423Z,52.87
2022-11-01T10:56:53.222Z,52.44
2022-11-01T10:57:58.963Z,52.20
2022-11-01T10:59:04.866Z,52.29
2022-11-01T11:00:11.104Z,52.44
2022-11-01T11:01:16.945Z,52.34
2022-11-01T11:02:27.475Z,51.82
2022-11-01T11:03:31.033Z,51.94
2022-11-01T11:04:32.935Z,51.85
2022-11-01T11:05:35.238Z,52.30
2022-11-01T11:06:39.993Z,52.69
2022-11-01T11:07:43.442Z,52.76
2022-11-01T11:08:53.273Z,52.54
2022-11-01T11:09:56.087Z,52.77
2022-11-01T11:11:04.906Z,52.74
2022-11-01T11:12:13.618Z,52.70
2022-11-01T11:13:22.468Z,52.61
2022-11-01T11:14:27.285Z,52.06
2022-11-01T11:15:37.585Z,50.96
2022-11-01T11:16:50.129Z,50.40
2022-11-01T11:17:55.833Z,49.85
2022-11-01T11:19:14.010Z,49.71
2022-11-01T11:20:19.824Z,49.85
2022-11-01T11:21:27.786Z,49.75
2022-11-01T11:22:26.367Z,48.99
2022-11-01T11:23:31.046Z,48.92
2022-11-01T11:24:36.789Z,49.32
2022-11-01T11:25:39.091Z,48.95
2022-11-01T11:28:59.033Z,48.60
2022-11-01T11:30:06.748Z,48.20
2022-11-01T11:31:15.409Z,47.67
2022-11-01T11:32:21.181Z,47.45
2022-11-01T11:33:25.854Z,47.42
2022-11-01T11:34:37.439Z,47.67
2022-11-01T11:35:39.999Z,47.86
2022-11-01T11:36:45.412Z,47.30
2022-11-01T11:37:54.688Z,47.61
2022-11-01T11:38:57.344Z,47.66
2022-11-01T11:40:11.807Z,47.46
2022-11-01T11:41:29.626Z,47.51
2022-11-01T11:42:31.851Z,47.92
2022-11-01T11:43:33.742Z,48.23
2022-11-01T11:44:50.623Z,48.26
2022-11-01T11:47:30.302Z,48.09
2022-11-01T11:48:33.434Z,47.84
2022-11-01T11:49:35.446Z,48.36
2022-11-01T11:50:37.744Z,48.47
2022-11-01T11:51:40.456Z,48.10
2022-11-01T11:52:45.988Z,47.92
2022-11-01T11:54:10.670Z,48.04
2022-11-01T11:55:49.935Z,47.92
2022-11-01T11:57:08.086Z,48.12
2022-11-01T11:58:33.792Z,47.72
2022-11-01T11:59:38.450Z,47.13
2022-11-01T12:00:44.397Z,46.13
2022-11-01T12:01:46.808Z,44.60
2022-11-01T12:02:50.167Z,44.85
2022-11-01T12:04:11.014Z,44.28
2022-11-01T12:05:21.751Z,44.59
2022-11-01T12:06:27.272Z,45.12
2022-11-01T12:07:33.353Z,45.60
2022-11-01T12:08:39.161Z,46.02
2022-11-01T12:09:44.828Z,46.53
2022-11-01T12:10:48.325Z,46.71
2022-11-01T12:11:51.101Z,46.65
2022-11-01T12:12:54.052Z,47.03
2022-11-01T12:14:02.550Z,46.98
2022-11-01T12:15:08.555Z,46.59
2022-11-01T12:16:24.990Z,46.25
2022-11-01T12:17:37.048Z,46.76
2022-11-01T12:18:51.913Z,47.09
2022-11-01T12:20:15.715Z,46.43
2022-11-01T12:21:27.312Z,46.56
2022-11-01T12:22:32.641Z,45.78
2022-11-01T12:23:41.821Z,45.12
2022-11-01T12:24:51.058Z,45.30
2022-11-01T12:25:55.931Z,45.40
2022-11-01T12:27:04.015Z,45.48
2022-11-01T12:28:28.369Z,45.16
2022-11-01T12:29:47.562Z,45.14
2022-11-01T12:30:53.973Z,44.67
2022-11-01T12:31:59.944Z,44.97
2022-11-01T12:34:27.195Z,46.55
2022-11-01T12:35:38.673Z,46.90
2022-11-01T12:36:44.596Z,47.25
2022-11-01T12:37:50.679Z,47.24
2022-11-01T12:39:08.480Z,46.98
2022-11-01T12:40:35.519Z,46.31
2022-11-01T12:41:50.208Z,46.06
2022-11-01T12:43:28.622Z,46.08
2022-11-01T12:44:37.098Z,45.89
2022-11-01T12:46:02.591Z,46.12
2022-11-01T12:47:17.638Z,46.18
2022-11-01T12:48:26.508Z,46.48
2022-11-01T12:49:32.221Z,46.81
2022-11-01T12:50:53.456Z,46.84
2022-11-01T12:51:59.566Z,46.56
2022-11-01T12:53:14.821Z,46.56
2022-11-01T12:54:23.266Z,46.90
2022-11-01T12:55:32.801Z,47.19
2022-11-01T12:56:35.238Z,47.16
2022-11-01T12:57:38.623Z,47.30
2022-11-01T12:58:40.915Z,47.63
2022-11-01T12:59:44.735Z,47.47
2022-11-01T13:01:10.761Z,47.48
2022-11-01T13:02:19.809Z,47.28
2022-11-01T13:03:44.849Z,47.19
2022-11-01T13:05:02.875Z,47.15
2022-11-01T13:06:24.061Z,47.25
2022-11-01T13:07:32.837Z,47.46
2022-11-01T13:09:01.880Z,47.11
2022-11-01T13:10:10.514Z,47.67
2022-11-01T13:11:19.266Z,48.20
2022-11-01T13:12:37.325Z,48.21
2022-11-01T13:13:43.040Z,48.72
2022-11-01T13:15:11.085Z,48.43
2022-11-01T13:16:26.071Z,48.69
2022-11-01T13:17:47.024Z,47.53
2022-11-01T13:19:02.035Z,47.71
2022-11-01T13:20:37.340Z,47.48
2022-11-01T13:21:49.367Z,48.26
2022-11-01T13:23:11.871Z,48.83
2022-11-01T13:24:32.224Z,48.75
2022-11-01T13:25:40.895Z,49.08
2022-11-01T13:26:46.814Z,49.76
2022-11-01T13:28:12.289Z,49.59
2022-11-01T13:30:33.703Z,50.07
2022-11-01T13:32:14.876Z,49.28
2022-11-01T13:33:35.801Z,48.91
2022-11-01T13:34:53.795Z,49.47
2022-11-01T13:35:59.544Z,50.22
2022-11-01T13:37:08.225Z,50.04
2022-11-01T13:38:23.199Z,50.28
2022-11-01T13:39:52.700Z,50.37
2022-11-01T13:41:10.910Z,51.01
2022-11-01T13:42:35.426Z,52.00
2022-11-01T13:43:42.145Z,51.53
2022-11-01T13:46:13.557Z,51.53
2022-11-01T13:47:46.882Z,51.90
2022-11-01T13:49:12.160Z,52.84
2022-11-01T13:50:48.376Z,53.86
2022-11-01T13:52:15.732Z,54.79
2022-11-01T13:53:21.543Z,55.97
2022-11-01T13:54:53.249Z,56.08
2022-11-01T13:55:59.149Z,56.08
2022-11-01T13:57:07.949Z,56.10
2022-11-01T13:58:19.590Z,56.38
2022-11-01T13:59:38.718Z,54.13
2022-11-01T14:00:43.858Z,55.15
2022-11-01T14:01:45.892Z,55.95
2022-11-01T14:02:57.302Z,56.73
2022-11-01T20:11:49.007Z,79.56
2022-11-01T20:14:01.101Z,79.94
2022-11-01T20:15:03.503Z,79.50
2022-11-01T20:16:06.951Z,78.81
2022-11-01T20:17:10.587Z,77.92
2022-11-01T20:18:13.506Z,78.05
2022-11-01T20:19:17.714Z,78.55
2022-11-01T20:20:19.318Z,79.18
2022-11-01T20:21:21.477Z,79.34
2022-11-01T20:22:23.929Z,79.48
2022-11-01T20:23:27.388Z,79.28
2022-11-01T20:24:29.825Z,78.07
2022-11-01T20:25:31.810Z,78.08
2022-11-01T20:26:33.895Z,78.13
2022-11-01T20:27:36.486Z,77.96
2022-11-01T20:28:38.649Z,77.44
2022-11-01T20:29:40.737Z,77.27
2022-11-01T20:30:42.725Z,77.51
2022-11-01T20:31:44.760Z,77.57
2022-11-01T20:32:46.730Z,77.37
2022-11-01T20:33:48.724Z,77.14
2022-11-01T20:34:50.966Z,77.70
2022-11-01T20:35:52.957Z,78.48
2022-11-01T20:37:22.603Z,78.45
2022-11-01T20:37:58.776Z,79.15
2022-11-01T20:39:01.171Z,79.20
2022-11-01T20:40:04.447Z,79.33
2022-11-01T20:41:06.787Z,79.16
2022-11-01T20:42:08.783Z,79.08
2022-11-01T20:43:10.668Z,79.44
2022-11-01T20:44:12.612Z,79.46
2022-11-01T20:45:15.373Z,79.39
2022-11-01T20:46:18.095Z,79.41
2022-11-01T20:47:19.992Z,79.32
2022-11-01T20:48:22.169Z,79.26
2022-11-01T20:49:24.064Z,79.12
2022-11-01T20:50:26.589Z,79.12
2022-11-01T20:51:28.496Z,79.59
2022-11-01T20:52:45.694Z,80.04
2022-11-01T20:53:34.502Z,80.43
2022-11-01T20:54:36.396Z,80.58
2022-11-01T20:55:38.313Z,80.75
2022-11-01T20:56:40.323Z,80.94
2022-11-01T20:57:43.462Z,81.03
2022-11-01T20:58:45.389Z,81.11
2022-11-01T20:59:47.271Z,81.25
2022-11-01T21:00:49.888Z,81.36
2022-11-01T21:01:54.888Z,81.51
2022-11-01T21:02:57.286Z,81.76
2022-11-01T21:03:59.437Z,81.74
2022-11-01T21:05:11.321Z,81.44
2022-11-01T21:06:17.900Z,81.22
2022-11-01T21:07:19.873Z,80.92
2022-11-01T21:08:24.771Z,81.00
2022-11-01T21:09:45.476Z,80.25
2022-11-01T21:11:02.355Z,80.10
2022-11-01T21:12:41.630Z,80.22
2022-11-01T21:13:45.533Z,80.21
2022-11-01T21:14:47.555Z,80.62
2022-11-01T21:15:50.336Z,80.52
2022-11-01T21:16:55.693Z,80.50
2022-11-01T21:18:13.387Z,80.33
2022-11-01T21:19:21.666Z,80.79
2022-11-01T21:20:26.106Z,81.17
2022-11-01T21:21:33.710Z,81.33
2022-11-01T21:22:35.633Z,81.41
2022-11-01T21:23:39.901Z,81.60
2022-11-01T21:24:45.512Z,82.18
2022-11-01T21:25:52.683Z,82.25
2022-11-01T21:27:13.917Z,82.17
2022-11-01T21:28:35.029Z,82.46
2022-11-01T21:29:43.310Z,82.75
2022-11-01T21:30:45.329Z,82.86
2022-11-01T21:31:47.208Z,83.01
2022-11-01T21:32:51.592Z,83.14
2022-11-01T21:33:56.552Z,83.55
2022-11-01T21:35:00.461Z,83.72
2022-11-01T21:36:21.669Z,84.35
2022-11-01T21:37:28.225Z,84.59
2022-11-01T21:38:37.184Z,84.91
2022-11-01T21:39:39.109Z,85.74
2022-11-01T21:40:41.957Z,86.08
2022-11-01T21:41:52.730Z,86.79
2022-11-01T21:42:56.421Z,86.91
2022-11-01T21:44:02.616Z,86.91
2022-11-01T21:46:32.121Z,87.22
2022-11-01T21:47:34.098Z,87.86
2022-11-01T21:48:36.085Z,88.30
2022-11-01T21:49:38.101Z,88.59
2022-11-01T21:50:40.087Z,88.74
2022-11-01T21:51:41.961Z,88.82
2022-11-01T21:52:43.855Z,86.71
2022-11-01T21:53:45.764Z,87.05
2022-11-01T21:54:48.408Z,86.55
2022-11-01T21:55:50.303Z,86.74
2022-11-01T21:56:54.781Z,86.76
2022-11-01T21:57:56.734Z,87.19
2022-11-01T21:58:58.599Z,86.83
2022-11-01T22:00:00.478Z,87.36
2022-11-01T22:01:02.496Z,87.56
2022-11-01T22:02:06.886Z,86.93
2022-11-01T22:03:09.183Z,86.13
2022-11-01T22:04:12.390Z,85.96
2022-11-01T22:05:15.932Z,85.80
2022-11-01T22:06:18.698Z,85.51
2022-11-01T22:07:20.573Z,85.01
2022-11-01T22:08:22.677Z,84.62
2022-11-01T22:09:26.899Z,84.62
2022-11-01T22:10:29.581Z,85.02
2022-11-01T22:11:32.758Z,85.46
2022-11-01T22:12:34.799Z,85.68
2022-11-01T22:13:36.673Z,85.65
2022-11-01T22:14:38.542Z,85.50
2022-11-01T22:15:40.422Z,85.27
2022-11-01T22:16:45.493Z,85.41
2022-11-01T22:17:47.411Z,86.15
2022-11-01T22:18:50.792Z,86.14
2022-11-01T22:19:52.739Z,86.05
2022-11-01T22:20:54.714Z,85.83
2022-11-01T22:21:56.614Z,85.08
2022-11-01T22:22:58.487Z,84.55
2022-11-01T22:24:01.185Z,83.98
2022-11-01T22:25:04.436Z,83.12
2022-11-01T22:26:06.636Z,82.33
2022-11-01T22:27:08.551Z,81.16
2022-11-01T22:28:10.434Z,80.38
2022-11-01T22:29:12.319Z,79.71
2022-11-01T22:30:14.585Z,79.23
2022-11-01T22:31:16.857Z,78.92
2022-11-01T22:32:18.843Z,79.07
2022-11-01T22:33:20.760Z,79.35
2022-11-01T22:34:22.656Z,79.93
2022-11-01T22:35:24.548Z,80.11
2022-11-01T22:36:28.667Z,80.21
2022-11-01T22:37:33.981Z,80.10
2022-11-01T22:38:42.571Z,79.73
2022-11-01T22:39:46.965Z,79.62
2022-11-01T22:42:00.238Z,80.01
2022-11-01T22:43:04.762Z,79.78
2022-11-01T22:44:12.826Z,79.69
2022-11-01T22:45:15.828Z,79.61
2022-11-01T22:46:21.690Z,79.68
2022-11-01T22:47:28.507Z,79.73
2022-11-01T22:48:30.449Z,79.69
2022-11-01T22:49:36.304Z,79.92
2022-11-01T22:50:38.329Z,80.11
2022-11-01T22:51:46.972Z,80.25
2022-11-01T22:52:49.023Z,80.38
2022-11-01T22:53:54.644Z,80.55
2022-11-01T22:55:25.798Z,80.90
2022-11-01T22:56:29.942Z,81.38
2022-11-01T22:57:35.859Z,82.17
2022-11-01T22:58:40.769Z,82.78
2022-11-01T22:59:49.468Z,83.60
2022-11-01T23:00:53.578Z,84.76
2022-11-01T23:01:59.456Z,84.56
2022-11-01T23:03:20.568Z,84.11
2022-11-01T23:04:22.548Z,84.47
2022-11-01T23:05:26.899Z,85.14
2022-11-01T23:06:35.023Z,85.28
2022-11-01T23:09:01.294Z,85.09
2022-11-01T23:10:07.383Z,85.37
2022-11-01T23:11:12.952Z,85.99
2022-11-01T23:12:18.635Z,86.22
2022-11-01T23:13:38.886Z,86.48
2022-11-01T23:14:43.542Z,86.86
2022-11-01T23:15:45.747Z,86.98
2022-11-01T23:16:49.298Z,86.75
2022-11-01T23:17:53.374Z,86.47
2022-11-01T23:18:58.788Z,86.33
2022-11-01T23:20:01.690Z,86.31
2022-11-01T23:21:08.183Z,86.45
2022-11-01T23:22:16.876Z,86.88
2022-11-01T23:23:20.082Z,86.66
2022-11-01T23:24:22.114Z,86.39
2022-11-01T23:25:25.124Z,85.65
2022-11-01T23:26:30.225Z,85.86
2022-11-01T23:27:32.170Z,85.86
2022-11-01T23:28:34.849Z,86.19
2022-11-01T23:29:36.985Z,86.54
2022-11-01T23:30:41.254Z,86.98
2022-11-01T23:31:43.226Z,87.14
2022-11-01T23:32:45.108Z,87.19
2022-11-01T23:33:48.825Z,87.25
2022-11-01T23:34:54.532Z,86.69
2022-11-01T23:36:00.272Z,86.01
2022-11-01T23:37:02.221Z,85.76
2022-11-01T23:38:08.068Z,85.27
2022-11-01T23:39:12.370Z,85.27
2022-11-01T23:40:19.883Z,84.48
2022-11-01T23:41:25.447Z,83.98
2022-11-01T23:42:27.368Z,83.59
2022-11-01T23:43:33.022Z,83.31
2022-11-01T23:44:38.631Z,83.03
2022-11-01T23:45:41.270Z,83.16
2022-11-01T23:46:43.640Z,83.56
2022-11-01T23:47:45.832Z,83.65
2022-11-01T23:48:48.618Z,83.73
2022-11-01T23:49:59.632Z,83.91
2022-11-01T23:51:02.737Z,83.77
2022-11-01T23:52:08.988Z,84.02
2022-11-01T23:53:14.151Z,84.66
2022-11-01T23:54:29.573Z,85.08
2022-11-01T23:55:35.002Z,85.64
2022-11-01T23:56:37.796Z,85.74
2022-11-01T23:57:42.238Z,86.06
2022-11-01T23:58:44.345Z,86.20
2022-11-01T23:59:50.800Z,86.44
